createdAt,value
2022-10-27T00:02:48.010Z,102114.38
2022-10-27T00:07:53.048Z,102134.66
2022-10-27T00:12:56.515Z,102127.34
2022-10-27T00:17:59.608Z,102132.53
2022-10-27T00:23:04.162Z,102130.59
2022-10-27T00:28:07.149Z,102126.09
2022-10-27T00:33:10.578Z,102124.09
2022-10-27T00:38:14.909Z,102130.09
2022-10-27T00:43:26.278Z,102127.09
2022-10-27T00:48:31.646Z,102128.75
2022-10-27T00:53:36.239Z,102132.31
2022-10-27T00:58:39.628Z,102128.59
2022-10-27T01:03:43.223Z,102132.72
2022-10-27T01:08:47.969Z,102140.44
2022-10-27T01:13:51.307Z,102143.66
2022-10-27T01:19:04.382Z,102163.09
2022-10-27T01:24:35.629Z,102158.69
2022-10-27T01:30:06.742Z,102158.69
2022-10-27T01:35:19.560Z,102171.16
2022-10-27T01:40:30.278Z,102167.53
2022-10-27T01:45:37.617Z,102162.38
2022-10-27T01:50:50.967Z,102158.75
2022-10-27T01:56:24.578Z,102152.63
2022-10-27T02:01:41.712Z,102138.50
2022-10-27T02:06:56.410Z,102133.94
2022-10-27T02:12:03.725Z,102117.81
2022-10-27T02:17:09.091Z,102129.41
2022-10-27T02:22:14.513Z,102116.63
2022-10-27T02:27:24.620Z,102121.03
2022-10-27T02:32:30.067Z,102125.25
2022-10-27T02:37:36.954Z,102122.47
2022-10-27T02:42:39.934Z,102122.34
2022-10-27T02:47:42.891Z,102122.22
2022-10-27T02:52:47.293Z,102113.19
2022-10-27T02:57:50.283Z,102110.38
2022-10-27T03:02:53.552Z,102100.59
2022-10-27T03:07:58.210Z,102089.03
2022-10-27T03:13:01.145Z,102102.19
2022-10-27T03:18:04.808Z,102084.34
2022-10-27T03:23:09.138Z,102091.38
2022-10-27T03:28:13.261Z,102081.56
2022-10-27T03:33:16.327Z,102094.91
2022-10-27T03:38:20.833Z,102087.81
2022-10-27T03:43:24.313Z,102087.91
2022-10-27T03:48:27.416Z,102094.00
2022-10-27T03:53:31.667Z,102094.88
2022-10-27T03:58:34.759Z,102100.06
2022-10-27T04:03:37.794Z,102098.25
2022-10-27T04:08:42.112Z,102107.81
2022-10-27T04:13:45.230Z,102111.28
2022-10-27T04:18:49.030Z,102112.97
2022-10-27T04:23:53.583Z,102112.75
2022-10-27T04:28:56.530Z,102121.44
2022-10-27T04:34:00.313Z,102130.38
2022-10-27T04:39:04.682Z,102125.84
2022-10-27T04:44:08.192Z,102124.88
2022-10-27T04:49:11.168Z,102114.03
2022-10-27T04:54:15.504Z,102127.31
2022-10-27T04:59:18.649Z,102122.72
2022-10-27T05:04:21.622Z,102117.56
2022-10-27T05:09:26.106Z,102106.19
2022-10-27T05:14:29.070Z,102109.88
2022-10-27T05:19:32.240Z,102105.53
2022-10-27T05:24:36.540Z,102100.25
2022-10-27T05:29:39.677Z,102097.69
2022-10-27T05:34:43.271Z,102095.16
2022-10-27T05:39:47.617Z,102088.00
2022-10-27T05:44:50.658Z,102089.88
2022-10-27T05:49:53.660Z,102097.13
2022-10-27T05:54:57.971Z,102094.66
2022-10-27T06:00:00.991Z,102077.25
2022-10-27T06:05:03.946Z,102076.59
2022-10-27T06:10:09.054Z,102062.72
2022-10-27T06:15:12.630Z,102080.53
2022-10-27T06:20:16.062Z,102063.13
2022-10-27T06:25:20.638Z,102073.13
2022-10-27T06:30:23.976Z,102059.16
2022-10-27T06:35:26.939Z,102051.19
2022-10-27T06:40:31.507Z,102049.38
2022-10-27T06:45:34.547Z,102051.97
2022-10-27T06:50:38.191Z,102053.63
2022-10-27T06:55:43.028Z,102057.34
2022-10-27T07:00:46.188Z,102057.47
2022-10-27T07:05:49.240Z,102050.41
2022-10-27T07:10:55.540Z,102053.34
2022-10-27T07:15:58.819Z,102043.78
2022-10-27T07:21:02.019Z,102056.03
2022-10-27T07:26:07.056Z,102050.66
2022-10-27T07:31:10.194Z,102045.00
2022-10-27T07:36:13.279Z,102055.97
2022-10-27T07:41:17.676Z,102064.94
2022-10-27T07:46:20.898Z,102054.41
2022-10-27T07:51:24.004Z,102072.63
2022-10-27T07:56:28.326Z,102058.66
2022-10-27T08:01:31.568Z,102044.72
2022-10-27T08:06:34.621Z,102050.25
2022-10-27T08:11:39.125Z,102031.22
2022-10-27T08:16:42.293Z,102045.00
2022-10-27T08:21:45.589Z,102041.97
2022-10-27T08:26:50.201Z,102034.56
2022-10-27T08:31:53.395Z,102036.09
2022-10-27T08:36:56.388Z,102034.91
2022-10-27T08:42:07.080Z,102026.72
2022-10-27T08:47:16.332Z,102016.88
2022-10-27T08:52:28.346Z,102023.16
2022-10-27T08:57:34.648Z,102018.41
2022-10-27T09:02:57.693Z,101992.44
2022-10-27T09:08:07.884Z,102001.72
2022-10-27T09:13:26.836Z,102001.28
2022-10-27T09:18:34.408Z,101998.84
2022-10-27T09:23:40.886Z,101985.81
2022-10-27T09:28:49.429Z,101980.03
2022-10-27T09:34:00.046Z,101972.47
2022-10-27T09:39:03.302Z,101970.72
2022-10-27T09:44:19.067Z,101974.38
2022-10-27T09:49:25.071Z,101978.13
2022-10-27T09:54:33.685Z,101966.28
2022-10-27T09:59:39.181Z,101951.16
2022-10-27T10:04:47.015Z,101939.88
2022-10-27T10:10:02.664Z,101934.88
2022-10-27T10:15:21.047Z,101932.28
2022-10-27T10:20:31.739Z,101926.13
2022-10-27T10:25:41.970Z,101927.94
2022-10-27T10:30:51.596Z,101923.50
2022-10-27T10:35:55.250Z,101934.28
2022-10-27T10:41:05.847Z,101921.88
2022-10-27T10:46:21.456Z,101914.84
2022-10-27T10:51:28.806Z,101919.47
2022-10-27T10:56:33.527Z,101914.34
2022-10-27T11:01:43.856Z,101914.50
2022-10-27T11:07:03.178Z,101911.31
2022-10-27T11:12:12.063Z,101911.75
2022-10-27T11:17:19.646Z,101907.47
2022-10-27T11:22:26.007Z,101905.72
2022-10-27T11:27:36.275Z,101913.09
2022-10-27T11:32:51.363Z,101902.56
2022-10-27T11:38:03.457Z,101910.41
2022-10-27T11:43:12.521Z,101898.63
2022-10-27T11:48:24.150Z,101916.28
2022-10-27T11:53:27.294Z,101881.78
2022-10-27T11:58:40.689Z,101888.13
2022-10-27T12:04:01.106Z,101862.94
2022-10-27T12:09:16.143Z,101847.63
2022-10-27T12:14:29.666Z,101818.25
2022-10-27T12:19:39.232Z,101821.16
2022-10-27T12:24:50.019Z,101815.81
2022-10-27T12:29:57.999Z,101836.66
2022-10-27T12:35:09.541Z,101844.78
2022-10-27T12:40:19.343Z,101841.22
2022-10-27T12:45:36.897Z,101828.03
2022-10-27T12:50:49.739Z,101821.97
2022-10-27T12:56:00.231Z,101818.47
2022-10-27T13:01:13.178Z,101815.00
2022-10-27T13:06:37.279Z,101790.16
2022-10-27T13:12:13.443Z,101808.06
2022-10-27T13:17:28.626Z,101795.72
2022-10-27T13:22:38.908Z,101788.72
2022-10-27T13:27:48.680Z,101783.38
2022-10-27T13:32:55.997Z,101777.13
2022-10-27T13:38:25.915Z,101774.47
2022-10-27T13:43:47.281Z,101788.78
2022-10-27T13:48:52.858Z,101773.72
2022-10-27T13:53:57.578Z,101768.44
2022-10-27T13:59:10.865Z,101755.09
2022-10-27T14:04:47.302Z,101763.94
2022-10-27T14:09:52.725Z,101756.84
2022-10-27T14:15:00.738Z,101770.22
2022-10-27T14:20:07.695Z,101755.97
2022-10-27T14:25:27.138Z,101774.69
2022-10-27T14:30:30.795Z,101780.03
2022-10-27T14:35:33.961Z,101777.38
2022-10-27T14:40:40.531Z,101781.84
2022-10-27T14:45:44.472Z,101790.78
2022-10-27T14:50:47.727Z,101783.72
2022-10-27T14:56:03.737Z,101783.81
2022-10-27T15:01:06.883Z,101783.88
2022-10-27T15:06:18.822Z,101792.78
2022-10-27T15:11:26.260Z,101791.91
2022-10-27T15:16:32.676Z,101782.16
2022-10-27T15:21:35.829Z,101782.16
2022-10-27T15:26:40.891Z,101789.34
2022-10-27T15:31:45.238Z,101789.34
2022-10-27T15:36:48.216Z,101782.19
2022-10-27T15:41:54.171Z,101787.53
2022-10-27T15:46:57.193Z,101777.75
2022-10-27T15:52:03.779Z,101773.19
2022-10-27T15:57:31.440Z,101789.13
2022-10-27T16:02:36.637Z,101787.19
2022-10-27T16:07:39.665Z,101802.16
2022-10-27T16:12:45.193Z,101808.19
2022-10-27T16:17:51.158Z,101807.13
2022-10-27T16:22:55.113Z,101805.97
2022-10-27T16:28:00.873Z,101806.75
2022-10-27T16:33:05.470Z,101811.91
2022-10-27T16:38:10.183Z,101811.72
2022-10-27T16:43:22.796Z,101811.56
2022-10-27T16:48:25.859Z,101823.78
2022-10-27T16:53:28.875Z,101825.38
2022-10-27T16:58:38.914Z,101823.41
2022-10-27T17:03:41.861Z,101825.06
2022-10-27T17:08:45.127Z,101808.88
2022-10-27T17:13:49.504Z,101815.88
2022-10-27T17:18:52.475Z,101812.16
2022-10-27T17:23:55.506Z,101812.88
2022-10-27T17:28:59.952Z,101815.34
2022-10-27T17:34:02.957Z,101810.81
2022-10-27T17:39:07.960Z,101802.59
2022-10-27T17:44:12.670Z,101791.94
2022-10-27T17:49:15.995Z,101802.47
2022-10-27T17:54:24.703Z,101789.03
2022-10-27T17:59:32.300Z,101785.41
2022-10-27T18:04:36.634Z,101776.38
2022-10-27T18:09:39.801Z,101787.88
2022-10-27T18:14:44.328Z,101789.53
2022-10-27T18:19:47.618Z,101791.28
2022-10-27T18:24:50.666Z,101796.53
2022-10-27T18:29:55.226Z,101807.00
2022-10-27T18:34:58.268Z,101810.44
2022-10-27T18:40:01.704Z,101821.03
2022-10-27T18:45:07.297Z,101807.66
2022-10-27T18:50:10.849Z,101812.97
2022-10-27T18:55:14.159Z,101830.72
2022-10-27T19:00:19.324Z,101823.59
2022-10-27T19:05:23.200Z,101830.78
2022-10-27T19:10:26.194Z,101831.72
2022-10-27T19:15:31.703Z,101823.72
2022-10-27T19:20:34.974Z,101831.78
2022-10-27T19:25:38.310Z,101836.19
2022-10-27T19:30:43.086Z,101827.31
2022-10-27T19:35:46.272Z,101839.59
2022-10-27T19:40:49.525Z,101836.03
2022-10-27T19:45:56.499Z,101829.66
2022-10-27T19:51:01.416Z,101834.06
2022-10-27T19:56:04.751Z,101828.75
2022-10-27T20:01:20.000Z,101830.41
2022-10-27T20:06:23.070Z,101829.56
2022-10-27T20:11:27.747Z,101828.69
2022-10-27T20:16:34.410Z,101800.13
2022-10-27T20:21:40.656Z,101810.13
2022-10-27T20:31:56.703Z,101816.66
2022-10-27T20:36:59.914Z,101821.75
2022-10-27T20:42:03.271Z,101814.59
2022-10-27T20:47:08.297Z,101817.66
2022-10-27T20:52:11.287Z,101813.31
2022-10-27T20:57:14.567Z,101817.81
2022-10-27T21:02:19.403Z,101828.50
2022-10-27T21:07:22.537Z,101829.28
2022-10-27T21:12:25.535Z,101821.22
2022-10-27T21:17:30.093Z,101827.34
2022-10-27T21:22:33.198Z,101821.97
2022-10-27T21:27:36.254Z,101814.94
2022-10-27T21:32:40.738Z,101815.94
2022-10-27T21:37:43.650Z,101814.25
2022-10-27T21:42:46.757Z,101815.03
2022-10-27T21:47:51.452Z,101806.88
2022-10-27T21:52:54.706Z,101799.31
2022-10-27T21:57:57.681Z,101807.13
2022-10-27T22:03:02.180Z,101795.50
2022-10-27T22:08:05.857Z,101801.50
2022-10-27T22:13:09.061Z,101795.28
2022-10-27T22:18:14.253Z,101800.56
2022-10-27T22:23:17.483Z,101794.25
2022-10-27T22:28:20.647Z,101791.38
2022-10-27T22:33:25.032Z,101775.06
2022-10-27T22:38:28.126Z,101788.38
2022-10-27T22:43:32.056Z,101779.41
2022-10-27T22:48:37.494Z,101771.34
2022-10-27T22:53:42.273Z,101771.03
2022-10-27T22:58:48.150Z,101768.97
2022-10-27T23:03:56.951Z,101760.38
2022-10-27T23:09:01.437Z,101754.75
2022-10-27T23:14:04.647Z,101750.13
2022-10-27T23:19:09.210Z,101746.44
2022-10-27T23:24:12.206Z,101758.84
2022-10-27T23:29:16.827Z,101743.72
2022-10-27T23:34:21.362Z,101758.84
2022-10-27T23:39:24.553Z,101757.88
2022-10-27T23:44:27.538Z,101758.56
2022-10-27T23:49:31.875Z,101756.75
2022-10-27T23:54:34.862Z,101760.19
2022-10-27T23:59:37.882Z,101755.72
